Time;durP1;ratioP1;P1;durP2;ratioP2;P2;SDS_P1;SDS_P2;PMS_P1;PMS_P2;Temp;Humidity;BMP_temperature;BMP_pressure;BME280_temperature;BME280_humidity;BME280_pressure;Samples;Min_cycle;Max_cycle;Signal;HPM_P1;HPM_P2
2022/09/05 00:02:00;;;;;;;8.98;4.15;;;;;;;20.04;100.00;100237.25;5012077;28;20085;-88
2022/09/05 00:04:28;;;;;;;10.77;4.30;;;;;;;20.05;100.00;100252.25;5012093;28;20022;-87
2022/09/05 00:07:22;;;;;;;10.85;4.25;;;;;;;20.25;100.00;100225.22;5011898;28;20559;-87
2022/09/05 00:10:03;;;;;;;11.98;3.97;;;;;;;20.23;100.00;100213.91;5011598;28;20055;-87
2022/09/05 00:12:30;;;;;;;8.90;3.65;;;;;;;20.12;100.00;100215.94;5011644;28;20404;-87
2022/09/05 00:15:05;;;;;;;13.48;3.83;;;;;;;20.10;100.00;100198.44;5011939;28;20032;-88
2022/09/05 00:17:55;;;;;;;11.85;4.53;;;;;;;20.11;100.00;100198.25;5011735;28;20026;-87
2022/09/05 00:20:28;;;;;;;8.45;3.65;;;;;;;20.00;100.00;100199.47;5011662;28;20034;-87
2022/09/05 00:23:12;;;;;;;9.70;4.07;;;;;;;20.03;100.00;100230.28;5011756;28;20419;-87
2022/09/05 00:26:09;;;;;;;8.73;3.88;;;;;;;20.07;100.00;100242.25;5011615;28;20052;-87
2022/09/05 00:28:37;;;;;;;12.48;4.93;;;;;;;20.10;100.00;100252.59;5011967;28;20109;-88
2022/09/05 00:31:05;;;;;;;7.57;3.97;;;;;;;20.19;100.00;100237.38;5011457;28;20448;-88
2022/09/05 00:33:53;;;;;;;11.23;4.28;;;;;;;20.16;100.00;100251.91;5011519;28;20468;-88
2022/09/05 00:36:38;;;;;;;10.88;4.05;;;;;;;19.98;100.00;100248.59;5015315;28;20456;-87
2022/09/05 00:39:10;;;;;;;11.75;5.38;;;;;;;20.03;100.00;100262.25;5015125;28;20030;-87
2022/09/05 00:41:36;;;;;;;12.38;4.03;;;;;;;20.20;100.00;100261.22;5015175;28;20030;-88
2022/09/05 00:44:03;;;;;;;8.52;4.18;;;;;;;20.23;100.00;100267.22;5015242;28;20022;-87
2022/09/05 00:46:32;;;;;;;7.93;4.32;;;;;;;20.26;100.00;100261.53;5015127;28;20030;-88
2022/09/05 00:49:16;;;;;;;11.00;4.68;;;;;;;20.30;100.00;100249.50;5015031;28;20448;-88
2022/09/05 00:52:00;;;;;;;8.38;4.10;;;;;;;20.39;100.00;100253.81;5015045;28;20072;-88
2022/09/05 00:55:02;;;;;;;13.38;4.75;;;;;;;20.33;100.00;100257.19;5015090;28;20049;-88
2022/09/05 00:57:57;;;;;;;9.73;5.00;;;;;;;20.41;100.00;100265.16;5014729;28;20089;-88
2022/09/05 01:00:33;;;;;;;11.25;4.07;;;;;;;20.47;100.00;100266.28;5014865;28;20479;-88
2022/09/05 01:03:11;;;;;;;10.80;4.88;;;;;;;20.59;100.00;100273.75;5014897;28;20053;-88
2022/09/05 01:06:06;;;;;;;8.55;3.70;;;;;;;20.58;100.00;100281.94;5014679;28;20591;-88
2022/09/05 01:08:53;;;;;;;9.90;4.45;;;;;;;20.66;100.00;100279.25;5014421;28;20040;-88
2022/09/05 01:11:38;;;;;;;10.20;4.18;;;;;;;20.65;100.00;100274.09;5014707;28;20033;-87
2022/09/05 01:14:33;;;;;;;10.38;3.85;;;;;;;20.62;100.00;100261.94;5014620;28;20024;-88
2022/09/05 01:17:05;;;;;;;13.43;3.65;;;;;;;20.68;100.00;100271.09;5014741;28;20038;-88
2022/09/05 01:19:48;;;;;;;15.27;4.32;;;;;;;20.49;100.00;100259.78;5014641;28;20025;-88
2022/09/05 01:22:28;;;;;;;9.23;3.58;;;;;;;20.45;100.00;100266.47;5014373;28;20030;-88
2022/09/05 01:25:14;;;;;;;7.50;3.25;;;;;;;20.36;100.00;100279.00;5014244;28;20056;-88
2022/09/05 01:28:01;;;;;;;12.75;3.55;;;;;;;20.59;100.00;100276.44;5014278;28;20084;-88
2022/09/05 01:30:42;;;;;;;13.95;3.83;;;;;;;20.58;100.00;100274.75;5014104;28;20369;-88
2022/09/05 01:33:42;;;;;;;11.18;3.83;;;;;;;20.50;100.00;100277.47;5012905;28;20051;-88
2022/09/05 01:36:32;;;;;;;11.77;4.47;;;;;;;20.23;100.00;100275.22;5014038;28;20022;-88
2022/09/05 01:39:17;;;;;;;9.40;4.43;;;;;;;20.15;100.00;100287.53;5014157;28;20100;-88
2022/09/05 01:42:10;;;;;;;11.50;4.03;;;;;;;20.01;100.00;100291.72;5014576;28;20030;-88
2022/09/05 01:44:50;;;;;;;10.18;3.70;;;;;;;19.82;100.00;100292.06;5014236;28;20026;-87
2022/09/05 01:47:40;;;;;;;9.80;3.97;;;;;;;19.96;100.00;100287.91;5011819;28;20554;-88
2022/09/05 01:50:05;;;;;;;15.95;4.18;;;;;;;19.91;100.00;100296.41;5013779;28;20029;-88
2022/09/05 01:52:48;;;;;;;10.48;3.72;;;;;;;20.01;100.00;100299.72;5013978;28;20028;-88
2022/09/05 01:55:44;;;;;;;12.48;4.30;;;;;;;19.87;100.00;100302.25;5013710;28;20053;-88
2022/09/05 01:58:24;;;;;;;12.05;3.88;;;;;;;19.74;100.00;100300.91;5013687;28;20149;-88
2022/09/05 02:01:05;;;;;;;6.53;3.10;;;;;;;19.74;100.00;100300.91;5013789;28;20034;-88
2022/09/05 02:03:42;;;;;;;6.38;2.70;;;;;;;19.71;100.00;100308.38;5013838;28;20030;-88
2022/09/05 02:06:07;;;;;;;7.80;3.00;;;;;;;19.61;100.00;100316.53;5014016;28;20037;-88
2022/09/05 02:08:50;;;;;;;10.13;3.30;;;;;;;19.58;100.00;100311.50;5013269;28;20383;-88
2022/09/05 02:11:16;;;;;;;9.63;3.50;;;;;;;19.64;100.00;100313.50;5013552;28;20108;-88
2022/09/05 02:13:59;;;;;;;6.95;3.10;;;;;;;19.78;100.00;100312.88;5013365;28;20176;-88
2022/09/05 02:16:42;;;;;;;8.18;2.85;;;;;;;19.87;100.00;100315.56;5013368;28;20105;-88
2022/09/05 02:19:29;;;;;;;4.65;3.13;;;;;;;19.96;100.00;100320.72;5013235;28;20022;-87
2022/09/05 02:22:06;;;;;;;10.85;3.90;;;;;;;20.02;100.00;100327.19;5013314;28;20034;-88
2022/09/05 02:24:31;;;;;;;8.88;3.28;;;;;;;20.04;100.00;100322.53;5013537;28;20026;-88
2022/09/05 02:27:15;;;;;;;8.63;3.67;;;;;;;20.08;100.00;100336.34;5013152;28;20036;-87
2022/09/05 02:29:54;;;;;;;5.93;3.03;;;;;;;20.06;100.00;100341.03;5013097;28;20112;-88
2022/09/05 02:32:40;;;;;;;8.25;3.25;;;;;;;19.98;100.00;100334.72;5013190;28;20026;-87
2022/09/05 02:35:09;;;;;;;4.10;2.40;;;;;;;19.87;100.00;100327.06;5013083;28;20025;-88
2022/09/05 02:37:40;;;;;;;7.68;3.03;;;;;;;19.64;100.00;100334.81;5012888;28;20022;-87
2022/09/05 02:40:17;;;;;;;8.50;2.97;;;;;;;19.74;100.00;100348.03;5013082;28;20032;-87
2022/09/05 02:42:54;;;;;;;6.32;3.05;;;;;;;19.65;100.00;100348.97;5012716;28;20563;-87
2022/09/05 02:45:41;;;;;;;8.05;2.92;;;;;;;19.60;100.00;100346.81;5012894;28;20399;-87
2022/09/05 02:48:35;;;;;;;7.72;2.40;;;;;;;19.44;100.00;100346.78;5012793;28;20053;-88
2022/09/05 02:51:26;;;;;;;8.65;2.30;;;;;;;19.33;100.00;100343.44;5008642;28;20121;-87
2022/09/05 02:53:57;;;;;;;6.77;2.53;;;;;;;19.27;100.00;100346.72;5012775;28;20026;-88
2022/09/05 02:57:03;;;;;;;4.68;2.28;;;;;;;19.16;100.00;100347.06;5012518;28;20022;-88
2022/09/05 03:00:07;;;;;;;12.73;2.95;;;;;;;19.08;100.00;100342.53;5011571;28;20038;-88
2022/09/05 03:02:52;;;;;;;8.23;2.50;;;;;;;19.07;100.00;100345.34;5012641;28;20034;-88
2022/09/05 03:05:25;;;;;;;8.13;2.85;;;;;;;18.89;100.00;100338.28;5012608;28;20034;-88
2022/09/05 03:08:04;;;;;;;3.85;2.33;;;;;;;18.93;100.00;100352.09;5011258;28;20037;-88
2022/09/05 03:11:26;;;;;;;2.58;1.95;;;;;;;18.85;100.00;100350.25;5012168;28;20030;-88
2022/09/05 03:14:10;;;;;;;;;;;;;;;18.85;100.00;100352.91;5010621;28;20056;-88
2022/09/05 03:17:09;;;;;;;8.07;1.88;;;;;;;18.72;100.00;100358.66;5010137;28;19983;-88
2022/09/05 03:20:09;;;;;;;4.20;1.75;;;;;;;18.68;100.00;100367.06;5012151;28;20084;-87
2022/09/05 03:22:56;;;;;;;5.90;2.00;;;;;;;18.57;100.00;100349.56;4993658;28;20042;-88
2022/09/05 03:25:43;;;;;;;6.60;2.38;;;;;;;18.58;100.00;100351.22;5012289;28;20053;-87
2022/09/05 03:28:23;;;;;;;7.55;2.42;;;;;;;18.63;100.00;100349.78;5012329;28;20431;-88
2022/09/05 03:31:17;;;;;;;11.70;2.55;;;;;;;18.54;100.00;100342.75;5011952;28;20037;-87
2022/09/05 03:34:23;;;;;;;6.28;2.35;;;;;;;18.53;100.00;100343.75;5012246;28;20053;-88
2022/09/05 03:37:10;;;;;;;12.23;3.58;;;;;;;18.69;100.00;100353.63;5011979;28;20036;-88
2022/09/05 03:39:57;;;;;;;8.57;2.50;;;;;;;18.76;100.00;100349.34;5012060;28;20053;-87
2022/09/05 03:42:40;;;;;;;7.70;2.92;;;;;;;18.78;100.00;100352.69;5010750;28;20507;-88
2022/09/05 03:45:11;;;;;;;6.70;2.47;;;;;;;18.92;100.00;100348.63;5012474;28;20021;-87
2022/09/05 03:48:07;;;;;;;5.30;2.30;;;;;;;18.91;100.00;100354.94;5012165;28;20045;-87
2022/09/05 03:50:56;;;;;;;5.28;2.33;;;;;;;18.79;100.00;100349.06;5010707;28;20080;-88
2022/09/05 03:53:56;;;;;;;6.60;2.60;;;;;;;18.79;100.00;100350.84;5011908;28;20029;-88
2022/09/05 03:56:21;;;;;;;9.00;2.63;;;;;;;18.65;100.00;100349.63;5012018;28;20033;-87
2022/09/05 03:59:07;;;;;;;5.13;1.80;;;;;;;18.55;100.00;100347.06;5012401;28;20431;-87
2022/09/05 04:01:46;;;;;;;6.13;1.67;;;;;;;18.42;100.00;100347.50;5011688;28;20033;-87
2022/09/05 04:04:37;;;;;;;4.40;1.77;;;;;;;18.35;100.00;100351.78;5011917;28;20056;-87
2022/09/05 04:07:07;;;;;;;6.35;2.45;;;;;;;18.26;100.00;100346.56;5011742;28;20108;-87
2022/09/05 04:09:44;;;;;;;2.20;1.30;;;;;;;18.17;100.00;100341.19;5012780;28;20042;-87
2022/09/05 04:12:16;;;;;;;3.60;1.80;;;;;;;18.12;100.00;100351.44;5015939;28;20026;-87
2022/09/05 04:14:48;;;;;;;5.32;1.70;;;;;;;18.02;100.00;100356.84;5015676;28;20379;-87
2022/09/05 04:17:38;;;;;;;4.97;1.85;;;;;;;17.98;100.00;100355.47;5015601;28;20471;-87
2022/09/05 04:20:16;;;;;;;4.10;1.77;;;;;;;17.86;100.00;100355.88;5015647;28;20034;-87
2022/09/05 04:23:16;;;;;;;5.78;1.60;;;;;;;17.80;100.00;100368.75;5015634;28;20369;-87
2022/09/05 04:25:51;;;;;;;5.63;1.65;;;;;;;17.80;100.00;100373.22;5015742;28;20112;-87
2022/09/05 04:28:37;;;;;;;5.07;1.92;;;;;;;17.81;100.00;100381.06;5015656;28;20464;-87
2022/09/05 04:31:27;;;;;;;10.23;2.60;;;;;;;17.82;100.00;100382.69;4997835;28;20038;-87
2022/09/05 04:34:16;;;;;;;7.28;2.70;;;;;;;17.89;100.00;100377.66;4995748;28;20022;-88
2022/09/05 04:36:42;;;;;;;9.68;3.15;;;;;;;17.98;100.00;100387.34;4995570;28;20027;-87
2022/09/05 04:39:08;;;;;;;13.93;3.40;;;;;;;18.09;100.00;100383.66;4995675;28;20026;-88
2022/09/05 04:41:43;;;;;;;15.15;3.65;;;;;;;18.23;100.00;100377.78;4995880;28;20081;-87
2022/09/05 04:44:26;;;;;;;9.30;2.70;;;;;;;18.24;100.00;100376.75;4995755;28;20033;-87
2022/09/05 04:46:55;;;;;;;6.85;2.45;;;;;;;18.21;100.00;100371.78;4995417;28;20527;-87
2022/09/05 04:49:26;;;;;;;5.65;2.05;;;;;;;18.14;100.00;100373.38;4995617;28;20036;-87
2022/09/05 04:52:07;;;;;;;6.65;2.45;;;;;;;18.16;100.00;100378.53;4995319;28;20077;-87
2022/09/05 04:54:49;;;;;;;6.43;2.15;;;;;;;17.95;100.00;100370.88;4995443;28;20105;-87
2022/09/05 04:57:18;;;;;;;;;;;;;;;18.00;100.00;100377.41;4994604;28;20030;-87
2022/09/05 05:00:05;;;;;;;3.50;1.88;;;;;;;17.80;100.00;100378.53;4994149;28;20016;-87
2022/09/05 05:02:55;;;;;;;2.40;1.77;;;;;;;17.67;100.00;100378.91;4995300;28;20035;-87
2022/09/05 05:05:30;;;;;;;3.80;1.90;;;;;;;17.68;100.00;100385.06;4995130;28;20030;-88
2022/09/05 05:08:04;;;;;;;8.55;2.45;;;;;;;17.58;100.00;100398.41;4994973;28;20042;-87
2022/09/05 05:10:39;;;;;;;4.82;1.95;;;;;;;17.41;100.00;100400.03;4994998;28;20369;-87
2022/09/05 05:13:14;;;;;;;4.72;1.92;;;;;;;17.34;100.00;100396.31;4994830;28;20469;-87
2022/09/05 05:15:55;;;;;;;5.65;1.92;;;;;;;17.23;100.00;100403.47;4995181;28;20056;-88
2022/09/05 05:18:38;;;;;;;6.07;2.55;;;;;;;17.28;100.00;100408.34;4994871;28;20026;-87
2022/09/05 05:21:08;;;;;;;6.53;1.85;;;;;;;17.28;100.00;100410.16;4993852;28;20261;-88
2022/09/05 05:23:40;;;;;;;5.70;1.73;;;;;;;17.33;100.00;100414.03;4994854;28;20041;-88
2022/09/05 05:26:10;;;;;;;6.75;2.42;;;;;;;17.38;100.00;100409.13;4994802;28;20033;-87
2022/09/05 05:28:49;;;;;;;4.50;1.80;;;;;;;17.34;100.00;100405.13;4994691;28;20100;-88
2022/09/05 05:31:20;;;;;;;7.75;2.28;;;;;;;17.20;100.00;100405.59;4994808;28;20404;-88
2022/09/05 05:33:47;;;;;;;;;;;;;;;17.21;100.00;100404.63;4995270;28;20392;-88
2022/09/05 05:36:27;;;;;;;6.55;1.95;;;;;;;17.21;100.00;100399.31;4994817;28;19995;-88
2022/09/05 05:38:59;;;;;;;3.67;2.10;;;;;;;17.16;100.00;100406.84;4994444;28;20042;-88
2022/09/05 05:41:49;;;;;;;8.52;2.45;;;;;;;17.15;100.00;100410.50;4994358;28;20026;-87
2022/09/05 05:44:18;;;;;;;3.13;1.80;;;;;;;17.10;100.00;100412.75;4994701;28;20077;-88
2022/09/05 05:46:52;;;;;;;6.45;1.75;;;;;;;17.08;100.00;100425.34;4994469;28;20031;-88
2022/09/05 05:49:37;;;;;;;6.80;2.40;;;;;;;17.04;100.00;100423.00;4994470;28;20070;-88
2022/09/05 05:52:25;;;;;;;8.20;2.75;;;;;;;17.07;100.00;100428.97;4994360;28;20026;-88
2022/09/05 05:55:17;;;;;;;5.55;1.85;;;;;;;17.11;100.00;100435.66;4994331;28;20060;-88
2022/09/05 05:58:13;;;;;;;6.78;1.90;;;;;;;17.11;100.00;100439.16;4998110;28;20042;-88
2022/09/05 06:00:58;;;;;;;8.13;2.30;;;;;;;17.21;100.00;100441.75;4994064;28;20048;-88
2022/09/05 06:03:59;;;;;;;5.05;1.67;;;;;;;17.30;100.00;100440.91;5005510;28;20029;-87
2022/09/05 06:07:00;;;;;;;7.90;2.60;;;;;;;17.36;100.00;100440.31;5013556;28;20472;-87
2022/09/05 06:09:43;;;;;;;11.50;2.38;;;;;;;17.52;100.00;100446.78;4952854;29;20126;-88
2022/09/05 06:12:24;;;;;;;4.63;1.92;;;;;;;17.53;100.00;100453.75;5008245;28;20056;-87
2022/09/05 06:15:24;;;;;;;6.20;2.42;;;;;;;17.55;100.00;100449.97;5012225;28;20022;-87
2022/09/05 06:18:27;;;;;;;10.52;2.60;;;;;;;17.56;100.00;100458.78;5012654;28;20475;-88
2022/09/05 06:21:07;;;;;;;8.85;2.75;;;;;;;17.53;100.00;100453.75;5018007;28;20113;-88
2022/09/05 06:23:57;;;;;;;6.50;2.47;;;;;;;17.73;100.00;100443.84;5032993;28;20526;-88
2022/09/05 06:27:10;;;;;;;7.00;2.42;;;;;;;17.71;100.00;100459.09;5001265;28;20065;-88
2022/09/05 06:30:19;;;;;;;8.10;2.08;;;;;;;18.02;100.00;100462.28;4993557;28;20026;-88
2022/09/05 06:32:53;;;;;;;7.00;2.63;;;;;;;17.97;100.00;100469.84;4996877;28;20176;-89
2022/09/05 06:36:02;;;;;;;9.88;2.92;;;;;;;18.11;100.00;100471.16;5001137;28;20503;-89
2022/09/05 06:38:38;;;;;;;8.05;2.58;;;;;;;18.28;100.00;100472.97;4993426;28;20034;-89
2022/09/05 06:41:21;;;;;;;9.65;4.35;;;;;;;18.39;100.00;100477.25;5008643;28;20484;-89
2022/09/05 06:44:24;;;;;;;12.70;3.72;;;;;;;18.93;100.00;100482.47;5004570;28;20026;-88
2022/09/05 06:46:54;;;;;;;13.40;3.80;;;;;;;19.18;100.00;100484.28;5009006;28;20034;-88
2022/09/05 06:49:39;;;;;;;12.43;4.07;;;;;;;19.59;100.00;100484.47;5003014;28;20042;-89
2022/09/05 06:52:42;;;;;;;11.18;4.05;;;;;;;20.15;100.00;100479.47;4994836;28;20780;-89
2022/09/05 06:55:25;;;;;;;;;;;;;;;21.16;100.00;100482.75;5006495;28;20539;-89
2022/09/05 06:58:30;;;;;;;16.37;3.97;;;;;;;21.91;100.00;100478.78;5010457;28;19940;-89
2022/09/05 07:00:57;;;;;;;21.75;5.22;;;;;;;22.22;100.00;100480.56;4956652;28;20038;-89
2022/09/05 07:03:31;;;;;;;18.90;5.45;;;;;;;23.21;100.00;100476.00;5004684;28;20036;-89
2022/09/05 07:06:27;;;;;;;17.52;4.50;;;;;;;22.92;100.00;100487.50;5012283;28;20028;-90
2022/09/05 07:09:11;;;;;;;16.50;4.50;;;;;;;22.33;100.00;100490.88;5008058;28;20575;-89
2022/09/05 07:11:50;;;;;;;9.75;3.78;;;;;;;21.92;100.00;100493.78;5011060;28;20029;-89
2022/09/05 07:14:34;;;;;;;14.65;3.92;;;;;;;21.50;100.00;100495.00;5011753;28;20049;-90
2022/09/05 07:17:15;;;;;;;16.52;3.92;;;;;;;21.96;100.00;100495.13;5005523;28;20476;-90
2022/09/05 07:20:01;;;;;;;13.23;3.85;;;;;;;21.86;100.00;100492.69;4997995;28;20061;-87
2022/09/05 07:22:33;;;;;;;17.95;4.65;;;;;;;21.75;100.00;100493.06;5006104;28;20120;-90
2022/09/05 07:25:06;;;;;;;15.95;3.33;;;;;;;21.65;100.00;100503.13;4998885;28;20038;-92
2022/09/05 07:27:46;;;;;;;13.75;3.03;;;;;;;22.08;100.00;100508.91;5000903;28;20113;-90
2022/09/05 07:30:13;;;;;;;16.88;4.15;;;;;;;22.11;100.00;100512.03;4993188;28;20088;-88
2022/09/05 07:32:44;;;;;;;19.38;4.15;;;;;;;22.31;100.00;100512.44;5006207;28;20045;-90
2022/09/05 07:35:28;;;;;;;15.20;3.58;;;;;;;22.97;100.00;100509.22;5006651;28;20427;-88
2022/09/05 07:38:16;;;;;;;22.63;3.33;;;;;;;23.10;100.00;100508.59;4999190;28;20108;-88
2022/09/05 07:40:52;;;;;;;14.63;3.63;;;;;;;23.28;100.00;100514.44;5006448;28;20034;-88
2022/09/05 07:43:34;;;;;;;20.52;2.97;;;;;;;23.38;100.00;100513.31;5009486;28;20161;-88
2022/09/05 07:46:00;;;;;;;15.90;3.67;;;;;;;24.04;98.50;100510.66;5008027;28;20026;-89
2022/09/05 07:48:34;;;;;;;29.50;4.00;;;;;;;24.31;97.67;100509.06;5008291;28;20477;-87
2022/09/05 07:51:04;;;;;;;12.80;2.65;;;;;;;25.62;94.70;100511.25;5008732;28;20431;-89
2022/09/05 07:53:30;;;;;;;13.13;3.05;;;;;;;26.48;88.23;100514.19;5010091;28;20041;-88
2022/09/05 07:55:58;;;;;;;12.32;3.17;;;;;;;25.23;89.95;100521.59;5012057;28;20022;-88
2022/09/05 07:58:38;;;;;;;20.48;4.35;;;;;;;24.89;92.61;100514.34;4995897;28;20069;-87
2022/09/05 08:01:04;;;;;;;21.48;3.67;;;;;;;24.47;93.20;100518.72;4997466;28;20101;-88
2022/09/05 08:03:29;;;;;;;18.05;3.67;;;;;;;24.93;92.96;100521.78;4996169;28;20157;-87
2022/09/05 08:06:00;;;;;;;21.58;3.83;;;;;;;27.44;80.30;100517.44;4994814;28;20080;-91
2022/09/05 08:08:47;;;;;;;17.15;3.35;;;;;;;25.41;85.48;100522.94;5011742;28;20037;-88
2022/09/05 08:11:14;;;;;;;17.67;3.25;;;;;;;25.27;87.69;100520.19;4996488;28;20034;-88
2022/09/05 08:13:41;;;;;;;12.80;2.67;;;;;;;30.15;71.09;100521.75;4992211;28;20037;-88
2022/09/05 08:16:10;;;;;;;13.85;2.70;;;;;;;32.54;54.87;100504.59;5000993;28;20023;-89
2022/09/05 08:18:54;;;;;;;;;;;;;;;34.03;49.10;100517.47;4992649;28;20322;-89
2022/09/05 08:21:22;;;;;;;;;;;;;;;37.48;41.78;100483.44;5005779;28;19924;-89
2022/09/05 08:24:08;;;;;;;;;;;;;;;39.11;37.33;100467.81;5012154;28;20299;-89
2022/09/05 08:26:39;;;;;;;;;;;;;;;35.60;39.34;100496.97;4997241;28;20380;-89
2022/09/05 08:29:09;;;;;;;;;;;;;;;36.86;39.88;100490.22;4992694;28;19921;-89
2022/09/05 08:31:51;;;;;;;;;;;;;;;38.25;35.94;100474.72;5010561;28;19921;-89
2022/09/05 08:34:36;;;;;;;;;;;;;;;39.51;33.91;100495.88;4999900;28;19929;-89
2022/09/05 08:37:02;;;;;;;;;;;;;;;38.59;34.69;100498.56;4988467;28;19968;-90
2022/09/05 08:39:30;;;;;;;;;;;;;;;40.46;32.60;100501.28;5004973;28;20375;-90
2022/09/05 08:42:07;;;;;;;;;;;;;;;39.62;33.81;100497.38;5010264;28;19924;-90
2022/09/05 08:44:37;;;;;;;;;;;;;;;41.10;31.69;100488.50;5004430;28;19944;-90
2022/09/05 08:47:10;;;;;;;;;;;;;;;39.81;31.89;100492.69;5010580;28;19972;-90
2022/09/05 08:49:47;;;;;;;;;;;;;;;39.58;32.64;100501.81;5010102;28;20379;-90
2022/09/05 08:52:20;;;;;;;;;;;;;;;38.57;33.63;100489.81;5000002;28;19917;-90
2022/09/05 08:55:03;;;;;;;;;;;;;;;35.82;38.15;100488.56;5009167;28;19925;-90
2022/09/05 08:57:44;;;;;;;;;;;;;;;34.32;40.33;100499.78;4995900;28;19917;-90
2022/09/05 09:00:10;;;;;;;;;;;;;;;34.96;38.51;100487.16;4998514;28;19921;-89
2022/09/05 09:02:41;;;;;;;;;;;;;;;35.08;38.28;100492.38;5015328;28;19913;-89
2022/09/05 09:05:26;;;;;;;16.20;4.00;;;;;;;35.86;38.34;100492.44;5014287;28;19924;-89
2022/09/05 09:08:12;;;;;;;14.30;3.70;;;;;;;32.94;44.11;100487.25;5003761;28;20368;-89
2022/09/05 09:10:56;;;;;;;17.33;3.08;;;;;;;36.13;38.15;100472.22;5004304;28;20096;-89
2022/09/05 09:13:50;;;;;;;15.80;2.70;;;;;;;37.27;36.43;100465.47;5014806;28;20025;-89
2022/09/05 09:16:34;;;;;;;11.90;2.85;;;;;;;38.70;33.18;100487.47;5009879;28;20038;-90
2022/09/05 09:19:26;;;;;;;;;;;;;;;35.00;37.40;100498.34;5014963;28;20065;-89
2022/09/05 09:22:29;;;;;;;16.08;2.78;;;;;;;32.71;41.46;100486.41;4964324;28;19921;-90
2022/09/05 09:25:00;;;;;;;;;;;;;;;31.85;45.03;100488.44;4997743;28;20019;-89
2022/09/05 09:27:50;;;;;;;12.15;2.25;;;;;;;34.73;41.76;100483.72;5007458;28;20043;-89
2022/09/05 09:30:16;;;;;;;;;;;;;;;35.10;38.82;100485.56;5009135;28;20034;-89
2022/09/05 09:32:47;;;;;;;13.88;3.20;;;;;;;36.57;36.62;100479.84;5009355;28;20024;-90
2022/09/05 09:35:22;;;;;;;12.50;2.97;;;;;;;35.48;37.59;100478.09;5014136;28;20594;-89
2022/09/05 09:38:15;;;;;;;12.70;2.70;;;;;;;33.23;41.17;100484.41;5034124;28;20041;-89
2022/09/05 09:41:07;;;;;;;16.90;2.60;;;;;;;31.09;45.50;100478.53;5024891;28;20522;-89
2022/09/05 09:43:51;;;;;;;11.23;2.47;;;;;;;30.58;48.49;100482.75;4984167;28;20042;-89
2022/09/05 09:46:37;;;;;;;18.25;2.80;;;;;;;30.34;49.29;100479.22;4996037;28;20038;-88
2022/09/05 09:49:23;;;;;;;7.90;2.60;;;;;;;32.16;45.65;100463.50;4994347;28;20034;-88
2022/09/05 09:52:07;;;;;;;14.80;3.15;;;;;;;31.46;46.22;100469.25;4998402;28;20112;-88
2022/09/05 09:54:47;;;;;;;11.82;2.33;;;;;;;30.60;47.95;100467.09;5010561;28;20026;-88
2022/09/05 09:57:54;;;;;;;13.95;2.95;;;;;;;29.77;50.64;100458.78;5011423;28;20030;-88
2022/09/05 10:00:22;;;;;;;14.68;2.72;;;;;;;30.09;51.14;100463.94;5011761;28;20162;-88
2022/09/05 10:03:07;;;;;;;16.27;2.70;;;;;;;30.36;52.22;100458.13;5002843;28;20026;-88
2022/09/05 10:06:17;;;;;;;16.63;3.45;;;;;;;31.05;48.95;100452.13;4994170;28;20105;-88
2022/09/05 10:08:57;;;;;;;12.45;2.50;;;;;;;32.09;46.39;100454.72;4989553;28;20447;-89
2022/09/05 10:11:55;;;;;;;14.30;2.75;;;;;;;32.62;45.51;100459.91;5009412;28;20045;-88
2022/09/05 10:14:23;;;;;;;19.25;2.67;;;;;;;31.38;47.24;100456.84;5009349;28;20530;-88
2022/09/05 10:16:58;;;;;;;14.00;2.72;;;;;;;29.75;51.07;100457.38;5011946;28;20034;-88
2022/09/05 10:19:41;;;;;;;15.43;2.95;;;;;;;27.41;58.28;100461.22;5002469;28;20034;-88
2022/09/05 10:22:20;;;;;;;16.70;2.65;;;;;;;26.75;63.67;100465.72;5012420;28;20100;-88
2022/09/05 10:24:45;;;;;;;;;;;;;;;26.25;65.48;100460.75;5014123;28;20487;-87
2022/09/05 10:27:28;;;;;;;;;;;;;;;25.70;67.83;100471.56;5012672;28;19926;-87
2022/09/05 10:30:05;;;;;;;;;;;;;;;25.46;72.06;100480.19;5010590;28;19944;-87
2022/09/05 10:32:46;;;;;;;12.95;2.78;;;;;;;25.69;71.96;100478.00;5012885;28;19920;-87
2022/09/05 10:35:15;;;;;;;12.63;2.72;;;;;;;25.33;75.22;100481.75;5009595;28;20109;-86
2022/09/05 10:37:44;;;;;;;12.25;2.55;;;;;;;24.92;78.86;100479.88;4999838;28;20040;-87
2022/09/05 10:40:16;;;;;;;15.15;2.55;;;;;;;24.97;78.05;100484.63;5010789;28;20373;-87
2022/09/05 10:42:46;;;;;;;12.40;2.85;;;;;;;24.92;80.32;100487.91;5011802;28;20026;-87
2022/09/05 10:45:38;;;;;;;16.23;2.92;;;;;;;24.86;80.54;100477.13;5008783;28;20025;-87
2022/09/05 10:48:27;;;;;;;18.65;3.65;;;;;;;24.69;82.48;100484.66;5017592;28;20030;-87
2022/09/05 10:51:03;;;;;;;13.07;2.80;;;;;;;23.80;86.51;100477.81;5011871;28;20033;-86
2022/09/05 10:53:31;;;;;;;14.52;3.38;;;;;;;23.52;87.20;100486.53;5006053;28;20038;-87
2022/09/05 10:56:27;;;;;;;11.27;2.85;;;;;;;23.35;88.91;100472.47;5011458;28;20046;-87
2022/09/05 10:59:00;;;;;;;13.82;3.13;;;;;;;23.08;90.65;100467.78;5007728;28;20030;-88
2022/09/05 11:01:44;;;;;;;16.65;2.95;;;;;;;23.39;90.85;100459.53;5010624;28;20028;-88
2022/09/05 11:04:12;;;;;;;16.65;3.22;;;;;;;23.00;94.59;100441.06;5009075;28;20125;-87
2022/09/05 11:06:41;;;;;;;15.48;2.50;;;;;;;22.81;100.00;100413.84;5010281;28;20544;-86
2022/09/05 11:09:21;;;;;;;17.17;3.33;;;;;;;22.82;100.00;100436.91;5009787;28;20110;-86
2022/09/05 11:11:59;;;;;;;14.05;3.40;;;;;;;22.74;100.00;100443.16;5008756;28;20483;-87
2022/09/05 11:14:49;;;;;;;14.10;2.55;;;;;;;22.27;100.00;100443.44;5006670;28;20030;-86
2022/09/05 11:17:26;;;;;;;12.57;2.70;;;;;;;22.46;100.00;100467.03;5003045;28;20040;-86
2022/09/05 11:20:19;;;;;;;21.75;4.40;;;;;;;22.06;100.00;100481.50;5009071;28;20034;-86
2022/09/05 11:22:47;;;;;;;14.95;2.22;;;;;;;21.58;100.00;100493.16;5008628;28;20029;-86
2022/09/05 11:25:22;;;;;;;15.88;3.88;;;;;;;21.47;100.00;100485.50;5008706;28;20033;-86
2022/09/05 11:27:51;;;;;;;11.85;2.42;;;;;;;21.47;100.00;100490.84;5001647;28;20057;-86
2022/09/05 11:30:26;;;;;;;10.50;2.40;;;;;;;21.38;100.00;100495.34;5011092;28;20029;-86
2022/09/05 11:33:14;;;;;;;13.93;2.70;;;;;;;21.43;100.00;100499.38;5010442;28;20392;-87
2022/09/05 11:35:52;;;;;;;16.00;2.97;;;;;;;21.56;100.00;100496.97;4999674;28;20030;-87
2022/09/05 11:38:40;;;;;;;14.27;2.38;;;;;;;21.78;100.00;100487.34;5005809;28;20087;-87
2022/09/05 11:41:14;;;;;;;11.52;2.53;;;;;;;21.72;100.00;100494.25;5010036;28;20440;-87
2022/09/05 11:43:57;;;;;;;8.90;2.00;;;;;;;21.74;100.00;100497.59;5009723;28;20030;-87
2022/09/05 11:46:30;;;;;;;6.75;2.08;;;;;;;22.11;100.00;100505.88;5010681;28;20022;-87
2022/09/05 11:49:18;;;;;;;9.85;1.90;;;;;;;22.06;100.00;100494.88;5007039;28;20594;-87
2022/09/05 11:52:20;;;;;;;7.55;1.73;;;;;;;22.17;100.00;100491.78;5005735;28;20450;-86
2022/09/05 11:54:58;;;;;;;11.38;2.03;;;;;;;22.30;100.00;100502.78;4999113;28;20388;-86
2022/09/05 11:57:30;;;;;;;8.60;1.80;;;;;;;22.26;100.00;100506.81;5010544;28;20404;-87
2022/09/05 12:00:08;;;;;;;8.95;1.95;;;;;;;22.28;100.00;100498.63;5009989;28;20117;-86
2022/09/05 12:03:05;;;;;;;10.93;2.60;;;;;;;22.15;100.00;100504.50;5004918;28;20104;-87
2022/09/05 12:05:53;;;;;;;9.30;1.75;;;;;;;21.97;100.00;100499.44;5008533;28;20444;-87
2022/09/05 12:08:45;;;;;;;8.77;2.00;;;;;;;21.75;100.00;100488.53;4995032;28;20041;-87
2022/09/05 12:11:13;;;;;;;14.60;2.25;;;;;;;21.95;100.00;100498.78;5004473;28;20049;-87
2022/09/05 12:13:47;;;;;;;8.00;1.80;;;;;;;22.02;100.00;100493.56;5006495;28;20400;-86
2022/09/05 12:16:46;;;;;;;12.40;2.92;;;;;;;22.10;100.00;100501.56;5005040;28;20022;-87
2022/09/05 12:19:31;;;;;;;7.25;1.88;;;;;;;21.95;100.00;100504.13;5010597;28;20029;-86
2022/09/05 12:22:09;;;;;;;13.15;3.17;;;;;;;21.90;100.00;100507.34;5009910;28;20056;-86
2022/09/05 12:24:53;;;;;;;13.82;2.35;;;;;;;21.89;100.00;100504.84;4994605;28;20026;-86
2022/09/05 12:27:23;;;;;;;8.63;2.05;;;;;;;21.91;100.00;100502.81;5004451;28;20533;-87